sensor_id;sensor_type;location;lat;lon;timestamp;P1;durP1;ratioP1;P2;durP2;ratioP2
43088;SDS011;28709;52.030;5.652;2023-07-31T00:00:40;2.03;;;1.75;;
43088;SDS011;28709;52.030;5.652;2023-07-31T00:03:06;1.90;;;1.58;;
43088;SDS011;28709;52.030;5.652;2023-07-31T00:05:32;1.70;;;1.60;;
43088;SDS011;28709;52.030;5.652;2023-07-31T00:07:57;2.35;;;1.60;;
43088;SDS011;28709;52.030;5.652;2023-07-31T00:10:23;1.88;;;1.50;;
43088;SDS011;28709;52.030;5.652;2023-07-31T00:12:48;2.58;;;1.92;;
43088;SDS011;28709;52.030;5.652;2023-07-31T00:15:14;1.80;;;1.70;;
43088;SDS011;28709;52.030;5.652;2023-07-31T00:17:40;1.52;;;1.42;;
43088;SDS011;28709;52.030;5.652;2023-07-31T00:20:06;1.98;;;1.70;;
43088;SDS011;28709;52.030;5.652;2023-07-31T00:22:32;1.50;;;1.27;;
43088;SDS011;28709;52.030;5.652;2023-07-31T00:24:57;2.30;;;1.90;;
43088;SDS011;28709;52.030;5.652;2023-07-31T00:27:24;2.13;;;1.90;;
43088;SDS011;28709;52.030;5.652;2023-07-31T00:29:50;6.57;;;3.00;;
43088;SDS011;28709;52.030;5.652;2023-07-31T00:32:16;4.88;;;2.72;;
43088;SDS011;28709;52.030;5.652;2023-07-31T00:34:41;3.53;;;2.50;;
43088;SDS011;28709;52.030;5.652;2023-07-31T00:37:07;8.60;;;3.53;;
43088;SDS011;28709;52.030;5.652;2023-07-31T00:39:33;9.05;;;3.50;;
43088;SDS011;28709;52.030;5.652;2023-07-31T00:41:59;12.18;;;5.07;;
43088;SDS011;28709;52.030;5.652;2023-07-31T00:44:25;14.15;;;5.30;;
43088;SDS011;28709;52.030;5.652;2023-07-31T00:46:51;18.80;;;5.57;;
43088;SDS011;28709;52.030;5.652;2023-07-31T00:49:17;17.88;;;6.63;;
43088;SDS011;28709;52.030;5.652;2023-07-31T00:51:43;18.90;;;6.80;;
43088;SDS011;28709;52.030;5.652;2023-07-31T00:54:08;17.60;;;5.72;;
43088;SDS011;28709;52.030;5.652;2023-07-31T00:56:34;21.13;;;7.05;;
43088;SDS011;28709;52.030;5.652;2023-07-31T00:59:00;34.35;;;9.07;;
43088;SDS011;28709;52.030;5.652;2023-07-31T01:01:26;31.33;;;9.18;;
43088;SDS011;28709;52.030;5.652;2023-07-31T01:03:52;24.83;;;8.00;;
43088;SDS011;28709;52.030;5.652;2023-07-31T01:06:28;21.45;;;8.50;;
43088;SDS011;28709;52.030;5.652;2023-07-31T01:09:42;26.73;;;8.20;;
43088;SDS011;28709;52.030;5.652;2023-07-31T01:11:52;20.52;;;7.38;;
43088;SDS011;28709;52.030;5.652;2023-07-31T01:14:21;30.98;;;8.57;;
43088;SDS011;28709;52.030;5.652;2023-07-31T01:16:47;23.70;;;7.22;;
43088;SDS011;28709;52.030;5.652;2023-07-31T01:19:13;21.48;;;7.70;;
43088;SDS011;28709;52.030;5.652;2023-07-31T01:27:23;34.63;;;9.55;;
43088;SDS011;28709;52.030;5.652;2023-07-31T01:32:40;25.60;;;7.55;;
43088;SDS011;28709;52.030;5.652;2023-07-31T01:35:07;25.83;;;7.53;;
43088;SDS011;28709;52.030;5.652;2023-07-31T01:37:33;27.15;;;7.38;;
43088;SDS011;28709;52.030;5.652;2023-07-31T01:39:59;22.15;;;7.20;;
43088;SDS011;28709;52.030;5.652;2023-07-31T01:42:25;28.70;;;7.38;;
43088;SDS011;28709;52.030;5.652;2023-07-31T01:44:50;26.02;;;6.97;;
43088;SDS011;28709;52.030;5.652;2023-07-31T01:47:16;23.63;;;7.53;;
43088;SDS011;28709;52.030;5.652;2023-07-31T01:49:42;21.13;;;6.75;;
43088;SDS011;28709;52.030;5.652;2023-07-31T01:52:07;23.00;;;6.53;;
43088;SDS011;28709;52.030;5.652;2023-07-31T01:54:33;19.08;;;7.20;;
43088;SDS011;28709;52.030;5.652;2023-07-31T01:56:59;23.77;;;7.22;;
43088;SDS011;28709;52.030;5.652;2023-07-31T01:59:24;19.50;;;7.00;;
43088;SDS011;28709;52.030;5.652;2023-07-31T02:01:50;27.95;;;7.97;;
43088;SDS011;28709;52.030;5.652;2023-07-31T02:04:15;21.33;;;7.70;;
43088;SDS011;28709;52.030;5.652;2023-07-31T02:06:41;21.23;;;7.47;;
43088;SDS011;28709;52.030;5.652;2023-07-31T02:09:08;16.20;;;6.38;;
43088;SDS011;28709;52.030;5.652;2023-07-31T02:11:34;18.85;;;7.45;;
43088;SDS011;28709;52.030;5.652;2023-07-31T02:13:59;15.60;;;6.18;;
43088;SDS011;28709;52.030;5.652;2023-07-31T02:16:25;16.65;;;6.15;;
43088;SDS011;28709;52.030;5.652;2023-07-31T02:18:50;14.90;;;5.50;;
43088;SDS011;28709;52.030;5.652;2023-07-31T02:21:16;11.00;;;3.92;;
43088;SDS011;28709;52.030;5.652;2023-07-31T02:23:42;11.23;;;4.03;;
43088;SDS011;28709;52.030;5.652;2023-07-31T02:26:07;14.23;;;4.47;;
43088;SDS011;28709;52.030;5.652;2023-07-31T02:28:33;14.20;;;4.68;;
43088;SDS011;28709;52.030;5.652;2023-07-31T02:30:58;10.93;;;4.00;;
43088;SDS011;28709;52.030;5.652;2023-07-31T02:33:24;10.68;;;3.78;;
43088;SDS011;28709;52.030;5.652;2023-07-31T02:35:50;13.55;;;4.57;;
43088;SDS011;28709;52.030;5.652;2023-07-31T02:38:15;14.55;;;4.63;;
43088;SDS011;28709;52.030;5.652;2023-07-31T02:40:41;13.77;;;4.70;;
43088;SDS011;28709;52.030;5.652;2023-07-31T02:43:07;11.30;;;4.35;;
43088;SDS011;28709;52.030;5.652;2023-07-31T02:45:33;18.27;;;5.47;;
43088;SDS011;28709;52.030;5.652;2023-07-31T02:47:59;14.93;;;5.60;;
43088;SDS011;28709;52.030;5.652;2023-07-31T02:50:24;14.25;;;5.28;;
43088;SDS011;28709;52.030;5.652;2023-07-31T02:52:50;11.45;;;5.38;;
43088;SDS011;28709;52.030;5.652;2023-07-31T02:55:16;12.35;;;5.20;;
43088;SDS011;28709;52.030;5.652;2023-07-31T02:57:41;14.07;;;5.28;;
43088;SDS011;28709;52.030;5.652;2023-07-31T03:00:07;16.48;;;6.60;;
43088;SDS011;28709;52.030;5.652;2023-07-31T03:02:34;16.73;;;5.63;;
43088;SDS011;28709;52.030;5.652;2023-07-31T03:05:00;23.67;;;6.22;;
43088;SDS011;28709;52.030;5.652;2023-07-31T03:07:26;18.23;;;6.03;;
43088;SDS011;28709;52.030;5.652;2023-07-31T03:09:51;23.50;;;7.60;;
43088;SDS011;28709;52.030;5.652;2023-07-31T03:12:17;20.83;;;6.55;;
43088;SDS011;28709;52.030;5.652;2023-07-31T03:14:42;18.88;;;6.72;;
43088;SDS011;28709;52.030;5.652;2023-07-31T03:17:08;19.45;;;7.82;;
43088;SDS011;28709;52.030;5.652;2023-07-31T03:19:34;17.10;;;5.78;;
43088;SDS011;28709;52.030;5.652;2023-07-31T03:21:59;22.63;;;6.80;;
43088;SDS011;28709;52.030;5.652;2023-07-31T03:24:25;19.17;;;6.38;;
43088;SDS011;28709;52.030;5.652;2023-07-31T03:26:51;22.27;;;7.13;;
43088;SDS011;28709;52.030;5.652;2023-07-31T03:29:16;23.00;;;7.18;;
43088;SDS011;28709;52.030;5.652;2023-07-31T03:31:42;20.67;;;6.38;;
43088;SDS011;28709;52.030;5.652;2023-07-31T03:34:08;21.50;;;7.22;;
43088;SDS011;28709;52.030;5.652;2023-07-31T03:36:33;23.20;;;6.60;;
43088;SDS011;28709;52.030;5.652;2023-07-31T03:38:59;23.38;;;7.00;;
43088;SDS011;28709;52.030;5.652;2023-07-31T03:41:24;28.42;;;8.02;;
43088;SDS011;28709;52.030;5.652;2023-07-31T03:43:50;22.13;;;8.27;;
43088;SDS011;28709;52.030;5.652;2023-07-31T03:46:17;21.25;;;6.88;;
43088;SDS011;28709;52.030;5.652;2023-07-31T03:48:42;21.10;;;7.07;;
43088;SDS011;28709;52.030;5.652;2023-07-31T03:51:08;22.55;;;7.63;;
43088;SDS011;28709;52.030;5.652;2023-07-31T03:53:34;20.55;;;7.00;;
43088;SDS011;28709;52.030;5.652;2023-07-31T03:55:59;27.20;;;6.63;;
43088;SDS011;28709;52.030;5.652;2023-07-31T03:58:25;21.85;;;7.28;;
43088;SDS011;28709;52.030;5.652;2023-07-31T04:00:50;19.30;;;6.00;;
43088;SDS011;28709;52.030;5.652;2023-07-31T04:03:16;23.55;;;5.82;;
43088;SDS011;28709;52.030;5.652;2023-07-31T04:05:42;19.90;;;7.07;;
43088;SDS011;28709;52.030;5.652;2023-07-31T04:08:07;22.10;;;6.53;;
43088;SDS011;28709;52.030;5.652;2023-07-31T04:10:33;16.85;;;6.18;;
43088;SDS011;28709;52.030;5.652;2023-07-31T04:12:59;20.33;;;6.55;;
43088;SDS011;28709;52.030;5.652;2023-07-31T04:15:25;12.43;;;6.20;;
43088;SDS011;28709;52.030;5.652;2023-07-31T04:17:51;21.63;;;6.82;;
43088;SDS011;28709;52.030;5.652;2023-07-31T04:20:17;21.13;;;6.65;;
43088;SDS011;28709;52.030;5.652;2023-07-31T04:22:42;17.30;;;6.72;;
43088;SDS011;28709;52.030;5.652;2023-07-31T04:25:08;18.27;;;6.70;;
43088;SDS011;28709;52.030;5.652;2023-07-31T04:27:34;22.35;;;7.00;;
43088;SDS011;28709;52.030;5.652;2023-07-31T04:29:59;19.35;;;5.70;;
43088;SDS011;28709;52.030;5.652;2023-07-31T04:32:25;21.58;;;6.68;;
43088;SDS011;28709;52.030;5.652;2023-07-31T04:34:50;13.35;;;6.03;;
43088;SDS011;28709;52.030;5.652;2023-07-31T04:37:16;21.02;;;7.78;;
43088;SDS011;28709;52.030;5.652;2023-07-31T04:39:42;23.63;;;6.15;;
43088;SDS011;28709;52.030;5.652;2023-07-31T04:42:07;16.38;;;5.55;;
43088;SDS011;28709;52.030;5.652;2023-07-31T04:44:33;19.98;;;6.05;;
43088;SDS011;28709;52.030;5.652;2023-07-31T04:46:58;21.63;;;6.60;;
43088;SDS011;28709;52.030;5.652;2023-07-31T04:49:24;19.80;;;6.07;;
43088;SDS011;28709;52.030;5.652;2023-07-31T04:51:50;16.05;;;5.82;;
43088;SDS011;28709;52.030;5.652;2023-07-31T04:54:16;15.52;;;6.07;;
43088;SDS011;28709;52.030;5.652;2023-07-31T04:56:42;16.58;;;6.60;;
43088;SDS011;28709;52.030;5.652;2023-07-31T04:59:07;14.48;;;5.80;;
43088;SDS011;28709;52.030;5.652;2023-07-31T05:01:33;21.63;;;6.22;;
43088;SDS011;28709;52.030;5.652;2023-07-31T05:03:58;14.38;;;5.53;;
43088;SDS011;28709;52.030;5.652;2023-07-31T05:06:24;17.80;;;5.53;;
43088;SDS011;28709;52.030;5.652;2023-07-31T05:08:50;15.75;;;4.97;;
43088;SDS011;28709;52.030;5.652;2023-07-31T05:11:15;12.73;;;5.60;;
43088;SDS011;28709;52.030;5.652;2023-07-31T05:13:41;15.13;;;5.90;;
43088;SDS011;28709;52.030;5.652;2023-07-31T05:16:06;16.85;;;5.53;;
43088;SDS011;28709;52.030;5.652;2023-07-31T05:18:32;11.48;;;4.70;;
43088;SDS011;28709;52.030;5.652;2023-07-31T05:20:58;21.20;;;5.45;;
43088;SDS011;28709;52.030;5.652;2023-07-31T05:23:23;17.08;;;5.88;;
43088;SDS011;28709;52.030;5.652;2023-07-31T05:25:49;15.88;;;5.82;;
43088;SDS011;28709;52.030;5.652;2023-07-31T05:28:14;11.80;;;4.93;;
43088;SDS011;28709;52.030;5.652;2023-07-31T05:30:40;15.30;;;5.50;;
43088;SDS011;28709;52.030;5.652;2023-07-31T05:33:05;18.23;;;6.18;;
43088;SDS011;28709;52.030;5.652;2023-07-31T05:35:31;16.55;;;5.25;;
43088;SDS011;28709;52.030;5.652;2023-07-31T05:37:57;18.38;;;5.53;;
43088;SDS011;28709;52.030;5.652;2023-07-31T05:40:22;19.23;;;6.00;;
43088;SDS011;28709;52.030;5.652;2023-07-31T05:42:48;17.92;;;5.88;;
43088;SDS011;28709;52.030;5.652;2023-07-31T05:45:13;18.38;;;6.15;;
43088;SDS011;28709;52.030;5.652;2023-07-31T05:47:39;14.10;;;5.47;;
43088;SDS011;28709;52.030;5.652;2023-07-31T05:50:05;12.75;;;5.05;;
43088;SDS011;28709;52.030;5.652;2023-07-31T05:52:31;16.15;;;5.75;;
43088;SDS011;28709;52.030;5.652;2023-07-31T05:54:56;16.25;;;6.95;;
43088;SDS011;28709;52.030;5.652;2023-07-31T05:57:22;17.50;;;7.10;;
43088;SDS011;28709;52.030;5.652;2023-07-31T05:59:48;11.18;;;5.60;;
43088;SDS011;28709;52.030;5.652;2023-07-31T06:02:13;15.73;;;5.80;;
43088;SDS011;28709;52.030;5.652;2023-07-31T06:04:39;12.43;;;5.65;;
43088;SDS011;28709;52.030;5.652;2023-07-31T06:07:05;18.35;;;6.90;;
43088;SDS011;28709;52.030;5.652;2023-07-31T06:09:31;14.45;;;6.03;;
43088;SDS011;28709;52.030;5.652;2023-07-31T06:11:56;19.17;;;6.20;;
43088;SDS011;28709;52.030;5.652;2023-07-31T06:14:22;14.88;;;6.60;;
43088;SDS011;28709;52.030;5.652;2023-07-31T06:16:48;15.68;;;5.60;;
43088;SDS011;28709;52.030;5.652;2023-07-31T06:19:13;22.67;;;5.75;;
43088;SDS011;28709;52.030;5.652;2023-07-31T06:21:39;15.68;;;5.97;;
43088;SDS011;28709;52.030;5.652;2023-07-31T06:24:07;13.68;;;5.28;;
43088;SDS011;28709;52.030;5.652;2023-07-31T06:26:32;10.38;;;5.43;;
43088;SDS011;28709;52.030;5.652;2023-07-31T06:28:58;10.40;;;4.78;;
43088;SDS011;28709;52.030;5.652;2023-07-31T06:31:23;14.13;;;4.88;;
43088;SDS011;28709;52.030;5.652;2023-07-31T06:33:49;11.90;;;5.15;;
43088;SDS011;28709;52.030;5.652;2023-07-31T06:36:16;14.57;;;5.07;;
43088;SDS011;28709;52.030;5.652;2023-07-31T06:38:41;10.98;;;4.40;;
43088;SDS011;28709;52.030;5.652;2023-07-31T06:41:07;11.98;;;5.07;;
43088;SDS011;28709;52.030;5.652;2023-07-31T06:43:33;7.97;;;3.92;;
43088;SDS011;28709;52.030;5.652;2023-07-31T06:46:00;9.35;;;3.72;;
43088;SDS011;28709;52.030;5.652;2023-07-31T06:48:32;11.75;;;4.15;;
43088;SDS011;28709;52.030;5.652;2023-07-31T06:50:58;9.10;;;4.13;;
43088;SDS011;28709;52.030;5.652;2023-07-31T06:53:24;11.18;;;4.43;;
43088;SDS011;28709;52.030;5.652;2023-07-31T06:55:49;10.80;;;4.28;;
43088;SDS011;28709;52.030;5.652;2023-07-31T06:58:16;11.77;;;3.72;;
43088;SDS011;28709;52.030;5.652;2023-07-31T07:00:42;5.95;;;2.88;;
43088;SDS011;28709;52.030;5.652;2023-07-31T07:03:08;9.38;;;3.83;;
43088;SDS011;28709;52.030;5.652;2023-07-31T07:05:34;8.50;;;3.50;;
43088;SDS011;28709;52.030;5.652;2023-07-31T07:07:59;5.28;;;3.03;;
43088;SDS011;28709;52.030;5.652;2023-07-31T07:10:25;9.70;;;3.30;;
43088;SDS011;28709;52.030;5.652;2023-07-31T07:12:50;6.28;;;3.58;;
43088;SDS011;28709;52.030;5.652;2023-07-31T07:15:16;5.65;;;2.60;;
43088;SDS011;28709;52.030;5.652;2023-07-31T07:17:42;4.22;;;2.30;;
43088;SDS011;28709;52.030;5.652;2023-07-31T07:20:08;4.93;;;2.45;;
43088;SDS011;28709;52.030;5.652;2023-07-31T07:22:33;3.42;;;2.10;;
43088;SDS011;28709;52.030;5.652;2023-07-31T07:24:59;3.38;;;2.13;;
43088;SDS011;28709;52.030;5.652;2023-07-31T07:27:25;3.72;;;2.25;;
43088;SDS011;28709;52.030;5.652;2023-07-31T07:29:51;5.03;;;2.40;;
43088;SDS011;28709;52.030;5.652;2023-07-31T07:32:17;4.18;;;2.05;;
43088;SDS011;28709;52.030;5.652;2023-07-31T07:34:43;2.92;;;2.30;;
43088;SDS011;28709;52.030;5.652;2023-07-31T07:37:09;4.55;;;2.45;;
43088;SDS011;28709;52.030;5.652;2023-07-31T07:39:34;3.60;;;2.33;;
43088;SDS011;28709;52.030;5.652;2023-07-31T07:42:00;3.25;;;2.65;;
43088;SDS011;28709;52.030;5.652;2023-07-31T07:44:26;4.25;;;2.10;;
43088;SDS011;28709;52.030;5.652;2023-07-31T07:46:51;6.32;;;2.60;;
43088;SDS011;28709;52.030;5.652;2023-07-31T07:49:17;4.47;;;2.90;;
43088;SDS011;28709;52.030;5.652;2023-07-31T07:51:43;7.47;;;3.08;;
43088;SDS011;28709;52.030;5.652;2023-07-31T07:54:09;4.50;;;2.90;;
43088;SDS011;28709;52.030;5.652;2023-07-31T07:56:34;4.30;;;2.90;;
43088;SDS011;28709;52.030;5.652;2023-07-31T07:59:01;5.00;;;2.85;;
43088;SDS011;28709;52.030;5.652;2023-07-31T08:01:27;6.15;;;3.40;;
43088;SDS011;28709;52.030;5.652;2023-07-31T08:03:52;3.00;;;2.70;;
43088;SDS011;28709;52.030;5.652;2023-07-31T08:06:18;7.00;;;3.08;;
43088;SDS011;28709;52.030;5.652;2023-07-31T08:08:44;6.90;;;3.85;;
43088;SDS011;28709;52.030;5.652;2023-07-31T08:11:09;6.50;;;2.80;;
43088;SDS011;28709;52.030;5.652;2023-07-31T08:13:35;5.35;;;2.97;;
43088;SDS011;28709;52.030;5.652;2023-07-31T08:16:02;4.38;;;2.58;;
43088;SDS011;28709;52.030;5.652;2023-07-31T08:18:28;5.65;;;2.85;;
43088;SDS011;28709;52.030;5.652;2023-07-31T08:20:55;5.40;;;3.33;;
43088;SDS011;28709;52.030;5.652;2023-07-31T08:23:21;5.80;;;2.70;;
43088;SDS011;28709;52.030;5.652;2023-07-31T08:25:46;6.22;;;2.78;;
43088;SDS011;28709;52.030;5.652;2023-07-31T08:28:14;3.67;;;2.33;;
43088;SDS011;28709;52.030;5.652;2023-07-31T08:30:41;3.47;;;2.42;;
43088;SDS011;28709;52.030;5.652;2023-07-31T08:33:07;3.55;;;2.53;;
43088;SDS011;28709;52.030;5.652;2023-07-31T08:35:32;4.35;;;2.35;;
43088;SDS011;28709;52.030;5.652;2023-07-31T08:37:58;3.08;;;2.35;;
43088;SDS011;28709;52.030;5.652;2023-07-31T08:40:24;4.57;;;2.58;;
43088;SDS011;28709;52.030;5.652;2023-07-31T08:42:52;2.92;;;2.60;;
43088;SDS011;28709;52.030;5.652;2023-07-31T08:45:19;2.80;;;2.45;;
43088;SDS011;28709;52.030;5.652;2023-07-31T08:47:46;3.42;;;2.60;;
43088;SDS011;28709;52.030;5.652;2023-07-31T08:50:17;4.40;;;2.50;;
43088;SDS011;28709;52.030;5.652;2023-07-31T08:52:43;2.95;;;2.70;;
43088;SDS011;28709;52.030;5.652;2023-07-31T08:55:09;2.47;;;2.22;;
43088;SDS011;28709;52.030;5.652;2023-07-31T08:57:36;3.15;;;2.22;;
43088;SDS011;28709;52.030;5.652;2023-07-31T09:00:04;2.65;;;2.30;;
43088;SDS011;28709;52.030;5.652;2023-07-31T09:02:35;3.85;;;2.35;;
43088;SDS011;28709;52.030;5.652;2023-07-31T09:05:19;2.83;;;2.28;;
43088;SDS011;28709;52.030;5.652;2023-07-31T09:07:46;2.97;;;1.90;;
43088;SDS011;28709;52.030;5.652;2023-07-31T09:10:13;3.33;;;2.58;;
43088;SDS011;28709;52.030;5.652;2023-07-31T09:12:39;2.72;;;2.50;;
43088;SDS011;28709;52.030;5.652;2023-07-31T09:15:05;2.20;;;2.00;;
43088;SDS011;28709;52.030;5.652;2023-07-31T09:17:32;3.65;;;2.72;;
43088;SDS011;28709;52.030;5.652;2023-07-31T09:22:41;3.50;;;2.92;;
43088;SDS011;28709;52.030;5.652;2023-07-31T09:27:49;3.30;;;2.92;;
43088;SDS011;28709;52.030;5.652;2023-07-31T09:30:16;3.42;;;2.67;;
43088;SDS011;28709;52.030;5.652;2023-07-31T09:32:45;4.80;;;4.10;;
43088;SDS011;28709;52.030;5.652;2023-07-31T09:35:21;4.90;;;3.35;;
43088;SDS011;28709;52.030;5.652;2023-07-31T09:38:05;5.72;;;4.60;;
43088;SDS011;28709;52.030;5.652;2023-07-31T09:40:40;4.38;;;3.33;;
43088;SDS011;28709;52.030;5.652;2023-07-31T09:43:11;8.13;;;5.15;;
43088;SDS011;28709;52.030;5.652;2023-07-31T09:45:41;7.82;;;4.93;;
43088;SDS011;28709;52.030;5.652;2023-07-31T09:48:08;9.38;;;5.18;;
43088;SDS011;28709;52.030;5.652;2023-07-31T09:50:34;6.38;;;5.30;;
43088;SDS011;28709;52.030;5.652;2023-07-31T09:53:03;6.30;;;4.57;;
43088;SDS011;28709;52.030;5.652;2023-07-31T09:55:29;8.05;;;5.60;;
43088;SDS011;28709;52.030;5.652;2023-07-31T09:57:56;7.55;;;5.45;;
43088;SDS011;28709;52.030;5.652;2023-07-31T10:00:22;7.68;;;5.28;;
43088;SDS011;28709;52.030;5.652;2023-07-31T10:02:50;8.88;;;5.72;;
43088;SDS011;28709;52.030;5.652;2023-07-31T10:05:17;6.72;;;5.05;;
43088;SDS011;28709;52.030;5.652;2023-07-31T10:07:51;6.68;;;5.50;;
43088;SDS011;28709;52.030;5.652;2023-07-31T10:10:20;8.20;;;5.50;;
43088;SDS011;28709;52.030;5.652;2023-07-31T10:12:47;8.15;;;6.00;;
43088;SDS011;28709;52.030;5.652;2023-07-31T10:15:14;7.80;;;6.13;;
43088;SDS011;28709;52.030;5.652;2023-07-31T10:17:41;11.82;;;6.18;;
43088;SDS011;28709;52.030;5.652;2023-07-31T10:20:07;6.40;;;5.45;;
43088;SDS011;28709;52.030;5.652;2023-07-31T10:22:34;7.07;;;5.13;;
43088;SDS011;28709;52.030;5.652;2023-07-31T10:25:01;9.68;;;6.68;;
43088;SDS011;28709;52.030;5.652;2023-07-31T10:27:27;6.03;;;4.97;;
43088;SDS011;28709;52.030;5.652;2023-07-31T10:29:56;10.20;;;6.13;;
43088;SDS011;28709;52.030;5.652;2023-07-31T10:32:23;9.63;;;5.88;;
43088;SDS011;28709;52.030;5.652;2023-07-31T10:34:50;8.38;;;5.10;;
43088;SDS011;28709;52.030;5.652;2023-07-31T10:42:35;11.43;;;5.05;;
43088;SDS011;28709;52.030;5.652;2023-07-31T10:45:10;6.80;;;5.18;;
43088;SDS011;28709;52.030;5.652;2023-07-31T10:47:42;8.48;;;5.03;;
43088;SDS011;28709;52.030;5.652;2023-07-31T10:50:20;6.32;;;4.38;;
43088;SDS011;28709;52.030;5.652;2023-07-31T10:52:50;8.73;;;4.85;;
43088;SDS011;28709;52.030;5.652;2023-07-31T10:57:51;6.18;;;4.68;;
43088;SDS011;28709;52.030;5.652;2023-07-31T11:00:27;6.47;;;4.47;;
43088;SDS011;28709;52.030;5.652;2023-07-31T11:02:58;7.70;;;4.07;;
43088;SDS011;28709;52.030;5.652;2023-07-31T11:08:29;6.72;;;4.90;;
43088;SDS011;28709;52.030;5.652;2023-07-31T11:13:28;5.15;;;4.10;;
43088;SDS011;28709;52.030;5.652;2023-07-31T11:15:54;6.70;;;4.40;;
43088;SDS011;28709;52.030;5.652;2023-07-31T11:18:19;6.80;;;3.92;;
43088;SDS011;28709;52.030;5.652;2023-07-31T11:20:45;5.53;;;3.60;;
43088;SDS011;28709;52.030;5.652;2023-07-31T11:23:11;4.72;;;3.60;;
43088;SDS011;28709;52.030;5.652;2023-07-31T11:25:37;4.60;;;3.58;;
43088;SDS011;28709;52.030;5.652;2023-07-31T11:28:08;6.65;;;4.00;;
43088;SDS011;28709;52.030;5.652;2023-07-31T11:30:35;4.32;;;3.60;;
43088;SDS011;28709;52.030;5.652;2023-07-31T11:33:02;4.70;;;3.70;;
43088;SDS011;28709;52.030;5.652;2023-07-31T11:35:29;5.07;;;4.07;;
43088;SDS011;28709;52.030;5.652;2023-07-31T11:37:55;4.57;;;3.92;;
43088;SDS011;28709;52.030;5.652;2023-07-31T11:40:21;5.45;;;4.20;;
43088;SDS011;28709;52.030;5.652;2023-07-31T11:42:46;7.47;;;4.97;;
43088;SDS011;28709;52.030;5.652;2023-07-31T11:45:12;7.53;;;4.70;;
43088;SDS011;28709;52.030;5.652;2023-07-31T11:47:38;9.23;;;4.78;;
43088;SDS011;28709;52.030;5.652;2023-07-31T11:50:04;6.30;;;4.35;;
43088;SDS011;28709;52.030;5.652;2023-07-31T11:52:32;9.15;;;4.38;;
43088;SDS011;28709;52.030;5.652;2023-07-31T11:55:06;8.05;;;4.40;;
43088;SDS011;28709;52.030;5.652;2023-07-31T11:57:39;4.78;;;3.63;;
43088;SDS011;28709;52.030;5.652;2023-07-31T12:00:09;6.00;;;4.18;;
43088;SDS011;28709;52.030;5.652;2023-07-31T12:02:38;9.05;;;4.10;;
43088;SDS011;28709;52.030;5.652;2023-07-31T12:05:05;5.78;;;3.55;;
43088;SDS011;28709;52.030;5.652;2023-07-31T12:10:11;5.00;;;3.63;;
43088;SDS011;28709;52.030;5.652;2023-07-31T12:12:36;4.63;;;3.58;;
43088;SDS011;28709;52.030;5.652;2023-07-31T12:15:02;3.85;;;2.40;;
43088;SDS011;28709;52.030;5.652;2023-07-31T12:17:37;3.83;;;2.83;;
43088;SDS011;28709;52.030;5.652;2023-07-31T12:20:04;3.33;;;2.70;;
43088;SDS011;28709;52.030;5.652;2023-07-31T12:22:30;4.90;;;2.85;;
43088;SDS011;28709;52.030;5.652;2023-07-31T12:24:56;3.60;;;3.08;;
43088;SDS011;28709;52.030;5.652;2023-07-31T12:27:21;5.43;;;3.42;;
43088;SDS011;28709;52.030;5.652;2023-07-31T12:29:49;4.82;;;3.15;;
43088;SDS011;28709;52.030;5.652;2023-07-31T12:32:21;3.63;;;2.72;;
43088;SDS011;28709;52.030;5.652;2023-07-31T12:34:49;6.13;;;2.72;;
43088;SDS011;28709;52.030;5.652;2023-07-31T12:37:14;3.20;;;2.90;;
43088;SDS011;28709;52.030;5.652;2023-07-31T12:39:40;6.80;;;2.85;;
43088;SDS011;28709;52.030;5.652;2023-07-31T12:42:06;4.07;;;2.95;;
43088;SDS011;28709;52.030;5.652;2023-07-31T12:44:31;4.18;;;3.03;;
43088;SDS011;28709;52.030;5.652;2023-07-31T12:46:57;3.97;;;3.28;;
43088;SDS011;28709;52.030;5.652;2023-07-31T12:49:23;3.53;;;3.22;;
43088;SDS011;28709;52.030;5.652;2023-07-31T12:51:48;4.03;;;3.63;;
43088;SDS011;28709;52.030;5.652;2023-07-31T12:54:14;4.88;;;3.58;;
43088;SDS011;28709;52.030;5.652;2023-07-31T12:56:39;5.57;;;4.03;;
43088;SDS011;28709;52.030;5.652;2023-07-31T12:59:05;4.72;;;4.15;;
43088;SDS011;28709;52.030;5.652;2023-07-31T13:01:31;4.30;;;3.67;;
43088;SDS011;28709;52.030;5.652;2023-07-31T13:03:57;4.65;;;4.05;;
43088;SDS011;28709;52.030;5.652;2023-07-31T13:06:23;4.75;;;4.07;;
43088;SDS011;28709;52.030;5.652;2023-07-31T13:08:49;4.40;;;3.60;;
43088;SDS011;28709;52.030;5.652;2023-07-31T13:11:16;5.85;;;4.03;;
43088;SDS011;28709;52.030;5.652;2023-07-31T13:13:41;6.53;;;5.20;;
43088;SDS011;28709;52.030;5.652;2023-07-31T13:16:07;6.63;;;3.95;;
43088;SDS011;28709;52.030;5.652;2023-07-31T13:18:33;8.07;;;5.07;;
43088;SDS011;28709;52.030;5.652;2023-07-31T13:20:58;6.97;;;4.70;;
43088;SDS011;28709;52.030;5.652;2023-07-31T13:23:24;7.82;;;5.00;;
43088;SDS011;28709;52.030;5.652;2023-07-31T13:25:50;6.38;;;4.32;;
43088;SDS011;28709;52.030;5.652;2023-07-31T13:28:15;6.70;;;4.50;;
43088;SDS011;28709;52.030;5.652;2023-07-31T13:30:41;6.10;;;4.35;;
43088;SDS011;28709;52.030;5.652;2023-07-31T13:33:06;9.00;;;4.95;;
43088;SDS011;28709;52.030;5.652;2023-07-31T13:35:32;6.85;;;4.10;;
43088;SDS011;28709;52.030;5.652;2023-07-31T13:37:58;5.47;;;4.88;;
43088;SDS011;28709;52.030;5.652;2023-07-31T13:40:23;6.50;;;4.18;;
43088;SDS011;28709;52.030;5.652;2023-07-31T13:42:49;6.43;;;4.60;;
43088;SDS011;28709;52.030;5.652;2023-07-31T13:45:14;7.68;;;4.90;;
43088;SDS011;28709;52.030;5.652;2023-07-31T13:47:40;6.90;;;4.93;;
43088;SDS011;28709;52.030;5.652;2023-07-31T13:50:06;5.22;;;4.00;;
43088;SDS011;28709;52.030;5.652;2023-07-31T13:52:32;6.47;;;4.18;;
43088;SDS011;28709;52.030;5.652;2023-07-31T13:54:57;4.75;;;4.05;;
43088;SDS011;28709;52.030;5.652;2023-07-31T13:57:23;5.22;;;4.57;;
43088;SDS011;28709;52.030;5.652;2023-07-31T13:59:48;6.32;;;5.18;;
43088;SDS011;28709;52.030;5.652;2023-07-31T14:02:14;7.45;;;4.72;;
43088;SDS011;28709;52.030;5.652;2023-07-31T14:04:40;5.38;;;4.80;;
43088;SDS011;28709;52.030;5.652;2023-07-31T14:07:05;5.57;;;4.97;;
43088;SDS011;28709;52.030;5.652;2023-07-31T14:09:32;7.03;;;5.05;;
43088;SDS011;28709;52.030;5.652;2023-07-31T14:11:57;8.65;;;5.80;;
43088;SDS011;28709;52.030;5.652;2023-07-31T14:14:23;8.82;;;5.93;;
43088;SDS011;28709;52.030;5.652;2023-07-31T14:16:48;8.52;;;5.78;;
43088;SDS011;28709;52.030;5.652;2023-07-31T14:19:14;8.25;;;5.75;;
43088;SDS011;28709;52.030;5.652;2023-07-31T14:21:40;7.72;;;5.18;;
43088;SDS011;28709;52.030;5.652;2023-07-31T14:24:05;9.55;;;6.07;;
43088;SDS011;28709;52.030;5.652;2023-07-31T14:26:31;8.05;;;4.95;;
43088;SDS011;28709;52.030;5.652;2023-07-31T14:28:57;7.30;;;5.13;;
43088;SDS011;28709;52.030;5.652;2023-07-31T14:31:23;8.65;;;5.80;;
43088;SDS011;28709;52.030;5.652;2023-07-31T14:33:48;8.02;;;5.10;;
43088;SDS011;28709;52.030;5.652;2023-07-31T14:36:14;10.00;;;5.80;;
43088;SDS011;28709;52.030;5.652;2023-07-31T14:38:40;7.25;;;5.18;;
43088;SDS011;28709;52.030;5.652;2023-07-31T14:41:05;14.07;;;5.97;;
43088;SDS011;28709;52.030;5.652;2023-07-31T14:43:31;7.47;;;4.97;;
43088;SDS011;28709;52.030;5.652;2023-07-31T14:45:57;5.40;;;4.05;;
43088;SDS011;28709;52.030;5.652;2023-07-31T14:48:24;7.00;;;4.90;;
43088;SDS011;28709;52.030;5.652;2023-07-31T14:50:51;7.90;;;4.70;;
43088;SDS011;28709;52.030;5.652;2023-07-31T14:53:16;5.65;;;3.47;;
43088;SDS011;28709;52.030;5.652;2023-07-31T14:55:42;7.90;;;4.60;;
43088;SDS011;28709;52.030;5.652;2023-07-31T14:58:08;8.75;;;4.70;;
43088;SDS011;28709;52.030;5.652;2023-07-31T15:00:35;5.78;;;4.50;;
43088;SDS011;28709;52.030;5.652;2023-07-31T15:03:02;7.85;;;4.88;;
43088;SDS011;28709;52.030;5.652;2023-07-31T15:05:28;7.55;;;4.43;;
43088;SDS011;28709;52.030;5.652;2023-07-31T15:07:54;11.55;;;5.55;;